Time,TemperatureF,DewpointF,PressureIn,WindDirection,WindDirectionDegrees,WindSpeedMPH,WindSpeedGustMPH,Humidity,HourlyPrecipIn,Conditions,Clouds,dailyrainin,SoftwareType,DateUTC
2013-09-16 00:14:00,63.0,57.0,-100.00,South,184,5.0,7.0,79,0.00,,,0.00,,2013-09-16 04:14:00,
2013-09-16 00:24:00,63.0,57.0,-100.00,South,184,5.0,7.0,79,0.00,,,0.00,,2013-09-16 04:24:00,
2013-09-16 00:54:00,62.0,57.0,-100.00,SW,227,1.0,2.0,83,0.00,,,0.00,,2013-09-16 04:54:00,
2013-09-16 01:13:00,61.0,57.0,-100.00,SSW,198,2.0,2.0,87,0.00,,,0.00,,2013-09-16 05:13:00,
2013-09-16 01:22:00,61.0,57.0,-100.00,SSW,198,2.0,2.0,87,0.00,,,0.00,,2013-09-16 05:22:00,
2013-09-16 01:44:00,61.0,57.0,-100.00,SW,232,1.0,2.0,87,0.00,,,0.00,,2013-09-16 05:44:00,
2013-09-16 01:52:00,64.0,58.0,-100.00,SW,216,2.0,3.0,81,0.00,,,0.00,,2013-09-16 05:52:00,
2013-09-16 02:03:00,64.0,58.0,-100.00,SW,216,2.0,3.0,81,0.00,,,0.00,,2013-09-16 06:03:00,
2013-09-16 02:22:00,63.0,58.0,-100.00,SSW,199,3.0,4.0,84,0.00,,,0.00,,2013-09-16 06:22:00,
2013-09-16 02:52:00,60.0,57.0,-100.00,NNW,330,1.0,1.0,90,0.00,,,0.00,,2013-09-16 06:52:00,
2013-09-16 03:12:00,61.0,57.0,-100.00,NNW,332,1.0,2.0,89,0.00,,,0.00,,2013-09-16 07:12:00,
2013-09-16 03:22:00,61.0,57.0,-100.00,NNW,332,1.0,2.0,89,0.00,,,0.00,,2013-09-16 07:22:00,
2013-09-16 03:43:00,61.0,57.0,-100.00,South,191,0.0,1.0,88,0.00,,,0.00,,2013-09-16 07:43:00,
2013-09-16 03:52:00,61.0,57.0,-100.00,SSW,193,0.0,2.0,89,0.00,,,0.00,,2013-09-16 07:52:00,
2013-09-16 04:12:00,60.0,57.0,-100.00,SSW,200,0.0,1.0,89,0.00,,,0.00,,2013-09-16 08:12:00,
2013-09-16 04:22:00,60.0,57.0,-100.00,SSW,200,0.0,1.0,89,0.00,,,0.00,,2013-09-16 08:22:00,
2013-09-16 04:42:00,60.0,57.0,-100.00,SSW,202,2.0,2.0,89,0.00,,,0.00,,2013-09-16 08:42:00,
2013-09-16 04:52:00,60.0,57.0,-100.00,SW,216,2.0,3.0,90,0.00,,,0.00,,2013-09-16 08:52:00,
2013-09-16 05:12:00,60.0,57.0,-100.00,South,188,4.0,6.0,90,0.00,,,0.00,,2013-09-16 09:12:00,
2013-09-16 05:22:00,60.0,57.0,-100.00,South,188,4.0,6.0,90,0.00,,,0.00,,2013-09-16 09:22:00,
2013-09-16 05:43:00,60.0,57.0,-100.00,SSW,192,4.0,5.0,90,0.00,,,0.00,,2013-09-16 09:43:00,
2013-09-16 05:53:00,60.0,57.0,-100.00,South,181,4.0,5.0,89,0.00,,,0.00,,2013-09-16 09:53:00,
2013-09-16 06:12:00,60.0,57.0,-100.00,South,186,4.0,5.0,89,0.00,,,0.00,,2013-09-16 10:12:00,
2013-09-16 06:23:00,60.0,57.0,-100.00,South,186,4.0,5.0,89,0.00,,,0.00,,2013-09-16 10:23:00,
2013-09-16 06:42:00,60.0,57.0,-100.00,South,172,3.0,4.0,89,0.00,,,0.00,,2013-09-16 10:42:00,
2013-09-16 06:53:00,60.0,57.0,-100.00,South,188,3.0,4.0,89,0.00,,,0.00,,2013-09-16 10:53:00,
2013-09-16 07:02:00,60.0,57.0,-100.00,South,188,3.0,4.0,89,0.00,,,0.00,,2013-09-16 11:02:00,
2013-09-16 07:22:00,60.0,57.0,-100.00,SSW,206,2.0,3.0,89,0.00,,,0.00,,2013-09-16 11:22:00,
2013-09-16 07:42:00,60.0,57.0,-100.00,South,181,5.0,6.0,90,0.00,,,0.00,,2013-09-16 11:42:00,
2013-09-16 07:52:00,61.0,57.0,-100.00,South,181,5.0,6.0,88,0.00,,,0.00,,2013-09-16 11:52:00,
2013-09-16 08:12:00,61.0,57.0,-100.00,South,178,5.0,6.0,88,0.00,,,0.00,,2013-09-16 12:12:00,
2013-09-16 08:22:00,61.0,57.0,-100.00,South,178,5.0,6.0,88,0.00,,,0.00,,2013-09-16 12:22:00,
2013-09-16 08:42:00,61.0,58.0,-100.00,SSE,168,6.0,7.0,87,0.00,,,0.00,,2013-09-16 12:42:00,
2013-09-16 08:52:00,62.0,58.0,-100.00,South,176,6.0,8.0,86,0.00,,,0.00,,2013-09-16 12:52:00,
2013-09-16 09:22:00,63.0,58.0,-100.00,South,174,5.0,6.0,85,0.00,,,0.00,,2013-09-16 13:22:00,
2013-09-16 09:52:00,65.0,59.0,-100.00,South,182,6.0,7.0,81,0.00,,,0.00,,2013-09-16 13:52:00,
2013-09-16 10:11:00,66.0,59.0,-100.00,South,176,5.0,6.0,79,0.00,,,0.00,,2013-09-16 14:11:00,
2013-09-16 10:22:00,66.0,59.0,-100.00,South,176,5.0,6.0,79,0.00,,,0.00,,2013-09-16 14:22:00,
2013-09-16 10:42:00,67.0,58.0,-100.00,South,171,5.0,7.0,73,0.00,,,0.00,,2013-09-16 14:42:00,
2013-09-16 13:12:00,70.0,60.0,-100.00,NNW,328,5.0,6.0,70,0.01,,,0.00,,2013-09-16 17:12:00,
2013-09-16 13:23:00,70.0,60.0,-100.00,NNW,328,5.0,6.0,70,0.01,,,0.00,,2013-09-16 17:23:00,
2013-09-16 13:42:00,70.0,57.0,-100.00,NW,326,6.0,9.0,64,0.00,,,0.00,,2013-09-16 17:42:00,
2013-09-16 13:53:00,71.0,58.0,-100.00,WNW,299,4.0,7.0,63,0.00,,,0.00,,2013-09-16 17:53:00,
2013-09-16 14:12:00,72.0,57.0,-100.00,SW,223,2.0,4.0,60,0.00,,,0.00,,2013-09-16 18:12:00,
2013-09-16 14:22:00,71.0,56.0,-100.00,WNW,301,2.0,4.0,59,0.00,,,0.00,,2013-09-16 18:22:00,
2013-09-16 14:32:00,71.0,56.0,-100.00,WNW,301,2.0,4.0,59,0.00,,,0.00,,2013-09-16 18:32:00,
2013-09-16 15:22:00,72.0,56.0,-100.00,NW,309,5.0,8.0,58,0.00,,,0.00,,2013-09-16 19:22:00,
2013-09-16 15:32:00,72.0,56.0,-100.00,NW,309,5.0,8.0,58,0.00,,,0.00,,2013-09-16 19:32:00,
2013-09-16 15:53:00,72.0,59.0,-100.00,North,1,5.0,8.0,65,0.00,,,0.00,,2013-09-16 19:53:00,
2013-09-16 16:03:00,72.0,59.0,-100.00,North,1,5.0,8.0,65,0.00,,,0.00,,2013-09-16 20:03:00,
2013-09-16 16:22:00,72.0,57.0,-100.00,NNW,332,7.0,10.0,59,0.00,,,0.00,,2013-09-16 20:22:00,
2013-09-16 16:43:00,71.0,56.0,-100.00,NNW,339,11.0,15.0,57,0.00,,,0.00,,2013-09-16 20:43:00,
2013-09-16 16:52:00,73.0,56.0,-100.00,NNW,333,10.0,14.0,55,0.00,,,0.00,,2013-09-16 20:52:00,
2013-09-16 17:11:00,71.0,54.0,-100.00,NNW,342,9.0,12.0,56,0.00,,,0.00,,2013-09-16 21:11:00,
2013-09-16 17:22:00,71.0,54.0,-100.00,NNW,342,9.0,12.0,56,0.00,,,0.00,,2013-09-16 21:22:00,
2013-09-16 17:31:00,69.0,54.0,-100.00,North,7,10.0,13.0,58,0.00,,,0.00,,2013-09-16 21:31:00,
2013-09-16 17:44:00,71.0,55.0,-100.00,North,360,9.0,12.0,57,0.00,,,0.00,,2013-09-16 21:44:00,
2013-09-16 17:55:00,70.0,54.0,-100.00,North,360,12.0,16.0,57,0.00,,,0.00,,2013-09-16 21:55:00,
2013-09-16 18:04:00,70.0,54.0,-100.00,North,360,12.0,16.0,57,0.00,,,0.00,,2013-09-16 22:04:00,
2013-09-16 18:24:00,69.0,54.0,-100.00,North,7,10.0,13.0,58,0.00,,,0.00,,2013-09-16 22:24:00,
2013-09-16 18:54:00,69.0,55.0,-100.00,NNW,332,6.0,8.0,60,0.00,,,0.00,,2013-09-16 22:54:00,
2013-09-16 19:02:00,69.0,55.0,-100.00,NNW,332,6.0,8.0,60,0.00,,,0.00,,2013-09-16 23:02:00,
2013-09-16 19:11:00,66.0,54.0,-100.00,North,353,6.0,8.0,66,0.00,,,0.00,,2013-09-16 23:11:00,
2013-09-16 19:22:00,68.0,55.0,-100.00,North,354,9.0,11.0,62,0.00,,,0.00,,2013-09-16 23:22:00,
2013-09-16 19:43:00,67.0,54.0,-100.00,NNW,336,8.0,11.0,62,0.00,,,0.00,,2013-09-16 23:43:00,
2013-09-16 19:52:00,66.0,54.0,-100.00,North,353,6.0,8.0,66,0.00,,,0.00,,2013-09-16 23:52:00,
2013-09-16 20:02:00,66.0,54.0,-100.00,North,353,6.0,8.0,66,0.00,,,0.00,,2013-09-17 00:02:00,
2013-09-16 20:52:00,64.0,52.0,-100.00,North,0,5.0,6.0,66,0.00,,,0.00,,2013-09-17 00:52:00,
2013-09-16 21:12:00,62.0,52.0,-100.00,NNE,18,3.0,4.0,70,0.00,,,0.00,,2013-09-17 01:12:00,
2013-09-16 21:22:00,62.0,52.0,-100.00,NNE,18,3.0,4.0,70,0.00,,,0.00,,2013-09-17 01:22:00,
2013-09-16 21:50:00,55.0,52.0,-100.00,NNW,333,2.0,3.0,88,0.00,,,0.00,,2013-09-17 01:50:00,
2013-09-16 21:52:00,58.0,52.0,-100.00,NE,52,2.0,3.0,78,0.00,,,0.00,,2013-09-17 01:52:00,
2013-09-16 22:03:00,58.0,52.0,-100.00,NE,52,2.0,3.0,78,0.00,,,0.00,,2013-09-17 02:03:00,
2013-09-16 22:22:00,57.0,52.0,-100.00,NNW,335,2.0,3.0,83,0.00,,,0.00,,2013-09-17 02:22:00,
2013-09-16 22:42:00,55.0,52.0,-100.00,NNW,333,2.0,3.0,88,0.00,,,0.00,,2013-09-17 02:42:00,
2013-09-16 23:23:00,55.0,51.0,-100.00,NNW,336,0.0,0.0,87,0.00,,,0.00,,2013-09-17 03:23:00,
2013-09-16 23:45:00,54.0,51.0,-100.00,NNW,342,0.0,0.0,87,0.00,,,0.00,,2013-09-17 03:45:00,
2013-09-16 23:54:00,54.0,50.0,-100.00,NNW,328,0.0,0.0,87,0.00,,,0.00,,2013-09-17 03:54:00,